Terminal Aerodrome Forecast
Issued by NWS

Home | Current Version | Previous Version | Text Only | Print | Product List | Glossary On
Versions: 1 2 3 4 5 6 7 8 9 10 11 12 13 14 15 16 17 18 19
000
FTUS43 KDLH 061957 AAB
TAFHIB
TAF AMD
KHIB 061957Z 0620/0718 30014G23KT P6SM SCT250
     FM070000 33014G24KT P6SM SCT200 WS020/34045KT
     FM070400 33012G19KT P6SM SKC
     FM071400 33014G21KT P6SM SKC=

USA.gov is the U.S. government's official web portal to all federal, state and local government web resources and services.